Time;durP1;ratioP1;P1;durP2;ratioP2;P2;SDS_P1;SDS_P2;PMS_P1;PMS_P2;Temp;Humidity;BMP_temperature;BMP_pressure;BME280_temperature;BME280_humidity;BME280_pressure;Samples;Min_cycle;Max_cycle;Signal;HPM_P1;HPM_P2
2022/07/10 00:00:13;;;;;;;11.98;1.50;;;;;;;;;;6205833;23;20013;-77
2022/07/10 00:02:40;;;;;;;10.40;1.70;;;;;;;;;;6203514;23;20016;-79
2022/07/10 00:05:07;;;;;;;13.98;1.88;;;;;;;;;;6207437;23;20350;-79
2022/07/10 00:07:33;;;;;;;9.10;1.42;;;;;;;;;;6205917;23;20024;-79
2022/07/10 00:10:08;;;;;;;8.57;1.63;;;;;;;;;;6206372;23;20023;-80
2022/07/10 00:12:34;;;;;;;13.32;2.13;;;;;;;;;;6206830;23;20020;-79
2022/07/10 00:15:00;;;;;;;9.20;2.22;;;;;;;;;;6206369;23;20024;-78
2022/07/10 00:17:26;;;;;;;8.68;2.00;;;;;;;;;;6179955;23;20031;-79
2022/07/10 00:19:52;;;;;;;10.70;1.63;;;;;;;;;;6205729;23;20024;-78
2022/07/10 00:22:18;;;;;;;9.38;1.50;;;;;;;;;;6207034;23;20022;-79
2022/07/10 00:24:44;;;;;;;9.10;1.27;;;;;;;;;;6204861;23;20016;-78
2022/07/10 00:27:10;;;;;;;9.15;1.23;;;;;;;;;;6207546;23;20016;-78
2022/07/10 00:29:36;;;;;;;5.82;1.35;;;;;;;;;;6206733;23;20029;-77
2022/07/10 00:32:02;;;;;;;11.07;1.58;;;;;;;;;;6207286;23;20028;-78
2022/07/10 00:34:29;;;;;;;18.70;1.77;;;;;;;;;;6206004;23;20013;-78
2022/07/10 00:36:55;;;;;;;12.38;1.58;;;;;;;;;;6205300;23;20298;-79
2022/07/10 00:39:21;;;;;;;10.00;2.38;;;;;;;;;;6206894;23;20020;-79
2022/07/10 00:41:47;;;;;;;8.60;2.13;;;;;;;;;;6205466;23;20452;-78
2022/07/10 00:44:13;;;;;;;9.50;1.58;;;;;;;;;;6206187;23;20044;-78
2022/07/10 00:46:40;;;;;;;10.65;1.40;;;;;;;;;;6206016;23;20045;-78
2022/07/10 00:49:06;;;;;;;10.18;1.60;;;;;;;;;;6207244;23;20032;-79
2022/07/10 00:51:33;;;;;;;5.95;1.73;;;;;;;;;;6154897;23;20526;-78
2022/07/10 00:54:00;;;;;;;15.43;1.70;;;;;;;;;;6205411;23;20032;-79
2022/07/10 00:56:26;;;;;;;9.57;1.27;;;;;;;;;;6206979;23;20020;-79
2022/07/10 00:58:53;;;;;;;9.95;1.60;;;;;;;;;;6178108;23;20024;-79
2022/07/10 01:01:19;;;;;;;14.75;1.58;;;;;;;;;;6206447;23;20021;-79
2022/07/10 01:03:46;;;;;;;11.75;2.20;;;;;;;;;;6205839;23;20035;-78
2022/07/10 01:06:12;;;;;;;11.15;1.73;;;;;;;;;;6207570;23;20035;-77
2022/07/10 01:08:38;;;;;;;6.85;1.13;;;;;;;;;;6205948;23;20055;-79
2022/07/10 01:11:05;;;;;;;7.07;1.17;;;;;;;;;;6206160;23;20039;-78
2022/07/10 01:13:31;;;;;;;3.28;1.23;;;;;;;;;;6206289;23;20016;-79
2022/07/10 01:15:57;;;;;;;7.07;1.30;;;;;;;;;;6205399;23;20095;-79
2022/07/10 01:18:25;;;;;;;6.68;1.45;;;;;;;;;;6207387;23;20024;-79
2022/07/10 01:20:55;;;;;;;6.45;1.33;;;;;;;;;;6204559;23;20547;-78
2022/07/10 01:23:21;;;;;;;6.38;1.20;;;;;;;;;;6205825;23;20575;-78
2022/07/10 01:25:48;;;;;;;8.43;1.30;;;;;;;;;;6179705;23;20150;-79
2022/07/10 01:28:14;;;;;;;9.18;1.63;;;;;;;;;;6206235;23;20025;-79
2022/07/10 01:30:41;;;;;;;10.07;1.58;;;;;;;;;;6180005;23;20051;-78
2022/07/10 01:33:07;;;;;;;6.32;1.40;;;;;;;;;;6205762;23;20325;-79
2022/07/10 01:35:33;;;;;;;7.75;1.30;;;;;;;;;;6206578;23;20543;-78
2022/07/10 01:38:02;;;;;;;13.95;2.47;;;;;;;;;;6178013;23;20025;-78
2022/07/10 01:40:28;;;;;;;10.85;2.20;;;;;;;;;;6206718;23;20016;-78
2022/07/10 01:42:54;;;;;;;12.35;1.60;;;;;;;;;;6208237;23;20027;-78
2022/07/10 01:45:21;;;;;;;9.18;1.42;;;;;;;;;;6206779;23;20013;-79
2022/07/10 01:47:47;;;;;;;9.88;1.60;;;;;;;;;;6204906;23;20020;-78
2022/07/10 01:50:13;;;;;;;11.27;1.75;;;;;;;;;;6205638;23;20039;-78
2022/07/10 01:52:40;;;;;;;10.20;2.17;;;;;;;;;;6208650;23;20020;-78
2022/07/10 01:55:06;;;;;;;8.27;1.40;;;;;;;;;;6204633;23;20021;-78
2022/07/10 01:57:32;;;;;;;10.60;1.80;;;;;;;;;;6206238;23;20540;-78
2022/07/10 01:59:58;;;;;;;17.48;1.95;;;;;;;;;;6177493;23;20025;-79
2022/07/10 02:02:24;;;;;;;10.05;2.35;;;;;;;;;;6179417;23;20060;-77
2022/07/10 02:04:50;;;;;;;12.98;1.83;;;;;;;;;;6204647;23;20035;-78
2022/07/10 02:07:18;;;;;;;11.70;1.98;;;;;;;;;;6206094;23;20027;-79
2022/07/10 02:09:45;;;;;;;8.65;2.17;;;;;;;;;;6179629;23;20457;-78
2022/07/10 02:12:12;;;;;;;11.57;1.88;;;;;;;;;;6205417;23;20013;-78
2022/07/10 02:14:39;;;;;;;10.98;1.75;;;;;;;;;;6205553;23;20471;-79
2022/07/10 02:17:06;;;;;;;10.20;1.85;;;;;;;;;;6204462;23;20051;-79
2022/07/10 02:19:32;;;;;;;16.02;2.10;;;;;;;;;;6204628;23;20075;-77
2022/07/10 02:21:59;;;;;;;9.52;1.60;;;;;;;;;;6204451;23;20019;-78
2022/07/10 02:24:25;;;;;;;13.07;1.85;;;;;;;;;;6205756;23;20020;-78
2022/07/10 02:26:51;;;;;;;10.70;1.52;;;;;;;;;;6205210;23;20099;-79
2022/07/10 02:29:17;;;;;;;12.57;1.83;;;;;;;;;;6177404;23;20024;-79
2022/07/10 02:31:44;;;;;;;10.13;1.20;;;;;;;;;;6179410;23;20047;-78
2022/07/10 02:34:10;;;;;;;7.97;2.50;;;;;;;;;;6205850;23;20052;-78
2022/07/10 02:36:38;;;;;;;8.77;1.67;;;;;;;;;;6206896;23;20071;-78
2022/07/10 02:39:04;;;;;;;9.52;1.52;;;;;;;;;;6206515;23;20016;-78
2022/07/10 02:41:30;;;;;;;7.93;1.55;;;;;;;;;;6211882;23;20017;-78
2022/07/10 02:43:56;;;;;;;12.13;1.92;;;;;;;;;;6212745;23;20564;-78
2022/07/10 02:46:22;;;;;;;8.60;1.50;;;;;;;;;;6213648;23;20027;-78
2022/07/10 02:48:48;;;;;;;8.57;1.30;;;;;;;;;;6209275;23;20429;-78
2022/07/10 02:51:15;;;;;;;6.97;1.08;;;;;;;;;;6197585;23;20377;-78
2022/07/10 02:53:41;;;;;;;8.63;1.60;;;;;;;;;;6238057;23;20082;-78
2022/07/10 02:56:07;;;;;;;8.73;1.40;;;;;;;;;;6185371;23;20028;-78
2022/07/10 02:58:34;;;;;;;8.48;1.60;;;;;;;;;;6238775;23;20099;-78
2022/07/10 03:01:00;;;;;;;11.57;1.98;;;;;;;;;;6208665;23;20123;-78
2022/07/10 03:03:26;;;;;;;13.45;2.08;;;;;;;;;;6235975;23;20461;-78
2022/07/10 03:05:52;;;;;;;7.40;1.45;;;;;;;;;;6236441;23;20020;-79
2022/07/10 03:08:21;;;;;;;6.88;1.67;;;;;;;;;;6207556;23;20024;-78
2022/07/10 03:10:47;;;;;;;11.50;1.90;;;;;;;;;;6236184;23;20016;-78
2022/07/10 03:13:13;;;;;;;13.00;1.65;;;;;;;;;;6208254;23;20078;-78
2022/07/10 03:15:39;;;;;;;8.68;1.65;;;;;;;;;;6236292;23;20020;-78
2022/07/10 03:18:05;;;;;;;10.15;1.70;;;;;;;;;;6234368;23;20107;-79
2022/07/10 03:20:31;;;;;;;16.55;2.28;;;;;;;;;;6235800;23;20867;-78
2022/07/10 03:22:57;;;;;;;16.13;1.90;;;;;;;;;;6235752;23;20012;-78
2022/07/10 03:25:23;;;;;;;7.63;1.70;;;;;;;;;;6236368;23;20496;-78
2022/07/10 03:27:49;;;;;;;12.15;2.65;;;;;;;;;;6208804;23;20047;-78
2022/07/10 03:30:15;;;;;;;10.13;2.10;;;;;;;;;;6235201;23;20374;-78
2022/07/10 03:32:41;;;;;;;10.77;1.50;;;;;;;;;;6208898;23;20357;-78
2022/07/10 03:35:07;;;;;;;10.02;1.50;;;;;;;;;;6235599;23;20016;-78
2022/07/10 03:37:33;;;;;;;15.05;2.33;;;;;;;;;;6235777;23;20428;-78
2022/07/10 03:39:59;;;;;;;9.50;1.63;;;;;;;;;;6234782;23;20082;-79
2022/07/10 03:42:26;;;;;;;11.13;1.80;;;;;;;;;;6182966;23;20419;-79
2022/07/10 03:44:52;;;;;;;9.52;1.70;;;;;;;;;;6182670;23;20024;-79
2022/07/10 03:47:20;;;;;;;13.93;2.30;;;;;;;;;;6232955;23;20055;-78
2022/07/10 03:49:47;;;;;;;9.70;1.63;;;;;;;;;;6208685;23;20028;-79
2022/07/10 03:52:13;;;;;;;14.88;2.25;;;;;;;;;;6202996;23;20485;-78
2022/07/10 03:54:39;;;;;;;8.40;2.20;;;;;;;;;;6206687;23;20315;-78
2022/07/10 03:59:50;;;;;;;10.45;1.88;;;;;;;;;;6206408;23;20771;-79
2022/07/10 04:02:16;;;;;;;14.13;1.85;;;;;;;;;;6206388;23;20025;-79
2022/07/10 04:04:42;;;;;;;8.45;1.83;;;;;;;;;;6204602;23;20019;-79
2022/07/10 04:07:10;;;;;;;12.48;2.13;;;;;;;;;;6177876;23;20326;-79
2022/07/10 04:09:36;;;;;;;9.65;2.08;;;;;;;;;;6202644;23;20449;-79
2022/07/10 04:12:03;;;;;;;16.35;1.83;;;;;;;;;;6204985;23;20024;-78
2022/07/10 04:14:29;;;;;;;14.02;2.05;;;;;;;;;;6177970;23;20357;-79
2022/07/10 04:16:55;;;;;;;8.43;1.65;;;;;;;;;;6203852;23;20071;-79
2022/07/10 04:19:23;;;;;;;13.25;2.10;;;;;;;;;;6204328;23;20067;-78
2022/07/10 04:21:50;;;;;;;13.00;2.47;;;;;;;;;;6205427;23;20021;-79
2022/07/10 04:24:16;;;;;;;7.85;1.83;;;;;;;;;;6205580;23;20020;-78
2022/07/10 04:26:43;;;;;;;9.00;1.92;;;;;;;;;;6206085;23;20514;-77
2022/07/10 04:29:09;;;;;;;16.50;2.30;;;;;;;;;;6206580;23;20012;-79
2022/07/10 04:31:35;;;;;;;13.50;1.77;;;;;;;;;;6205286;23;20023;-79
2022/07/10 04:34:02;;;;;;;15.52;2.58;;;;;;;;;;6205610;23;20044;-78
2022/07/10 04:36:29;;;;;;;12.73;2.10;;;;;;;;;;6204490;23;20047;-78
2022/07/10 04:38:56;;;;;;;13.57;1.90;;;;;;;;;;6205117;23;20103;-79
2022/07/10 04:41:22;;;;;;;7.60;1.30;;;;;;;;;;6206461;23;20020;-78
2022/07/10 04:43:48;;;;;;;11.45;1.83;;;;;;;;;;6204910;23;20020;-78
2022/07/10 04:46:15;;;;;;;9.45;1.55;;;;;;;;;;6206508;23;20060;-79
2022/07/10 04:48:41;;;;;;;12.32;2.00;;;;;;;;;;6204008;23;20079;-78
2022/07/10 04:51:07;;;;;;;10.23;2.05;;;;;;;;;;6204935;23;20174;-78
2022/07/10 04:53:33;;;;;;;7.38;1.67;;;;;;;;;;6205255;23;20017;-77
2022/07/10 04:56:00;;;;;;;18.27;1.90;;;;;;;;;;6204954;23;20543;-79
2022/07/10 04:58:26;;;;;;;16.73;2.20;;;;;;;;;;6205627;23;20064;-79
2022/07/10 05:00:52;;;;;;;11.98;2.10;;;;;;;;;;6204822;23;20024;-78
2022/07/10 05:03:18;;;;;;;12.88;1.70;;;;;;;;;;6206830;23;20516;-77
2022/07/10 05:05:44;;;;;;;18.10;2.33;;;;;;;;;;6178467;23;20052;-77
2022/07/10 05:08:10;;;;;;;12.63;2.35;;;;;;;;;;6205525;23;20398;-78
2022/07/10 05:10:36;;;;;;;15.88;2.38;;;;;;;;;;6205551;23;20017;-78
2022/07/10 05:13:02;;;;;;;10.13;1.67;;;;;;;;;;6179395;23;20017;-78
2022/07/10 05:15:29;;;;;;;12.20;1.92;;;;;;;;;;6205625;23;20016;-77
2022/07/10 05:17:55;;;;;;;14.57;1.95;;;;;;;;;;6205016;23;20012;-79
2022/07/10 05:20:21;;;;;;;16.70;2.05;;;;;;;;;;6205556;23;20032;-78
2022/07/10 05:22:47;;;;;;;11.57;1.80;;;;;;;;;;6204730;23;20372;-79
2022/07/10 05:25:13;;;;;;;12.77;2.65;;;;;;;;;;6179084;23;20024;-78
2022/07/10 05:27:39;;;;;;;11.25;2.35;;;;;;;;;;6205727;23;20021;-78
2022/07/10 05:30:05;;;;;;;12.50;1.85;;;;;;;;;;6207902;23;20051;-77
2022/07/10 05:32:31;;;;;;;11.48;1.77;;;;;;;;;;6212226;23;20020;-78
2022/07/10 05:34:58;;;;;;;10.40;1.98;;;;;;;;;;6196035;23;20020;-77
2022/07/10 05:37:24;;;;;;;7.15;1.55;;;;;;;;;;6194635;23;20005;-78
2022/07/10 05:39:50;;;;;;;10.18;2.25;;;;;;;;;;6214780;23;20095;-78
2022/07/10 05:42:17;;;;;;;10.05;2.50;;;;;;;;;;6206605;23;20027;-79
2022/07/10 05:44:44;;;;;;;10.52;2.20;;;;;;;;;;6205104;23;20028;-78
2022/07/10 05:47:10;;;;;;;9.50;1.90;;;;;;;;;;6181523;23;20029;-79
2022/07/10 05:49:37;;;;;;;12.20;2.13;;;;;;;;;;6205377;23;20021;-78
2022/07/10 05:52:04;;;;;;;9.98;1.85;;;;;;;;;;6205146;23;20017;-79
2022/07/10 05:54:30;;;;;;;7.20;1.70;;;;;;;;;;6205552;23;20021;-79
2022/07/10 05:56:56;;;;;;;13.50;1.88;;;;;;;;;;6204418;23;20025;-78
2022/07/10 05:59:22;;;;;;;14.27;2.05;;;;;;;;;;6204398;23;20034;-78
2022/07/10 06:01:48;;;;;;;13.55;1.95;;;;;;;;;;6204361;23;20023;-78
2022/07/10 06:04:14;;;;;;;16.83;2.90;;;;;;;;;;6205866;23;20071;-78
2022/07/10 06:06:41;;;;;;;12.65;2.15;;;;;;;;;;6176929;23;20456;-77
2022/07/10 06:09:07;;;;;;;10.13;1.90;;;;;;;;;;6205043;23;20020;-77
2022/07/10 06:11:33;;;;;;;9.18;2.35;;;;;;;;;;6204947;23;20028;-77
2022/07/10 06:14:00;;;;;;;8.73;1.92;;;;;;;;;;6203879;23;20898;-78
2022/07/10 06:16:26;;;;;;;12.75;1.70;;;;;;;;;;6178873;23;20024;-79
2022/07/10 06:18:52;;;;;;;11.88;1.65;;;;;;;;;;6177612;23;20453;-78
2022/07/10 06:21:21;;;;;;;10.63;2.60;;;;;;;;;;6203277;23;20024;-77
2022/07/10 06:23:48;;;;;;;8.18;2.20;;;;;;;;;;6202899;23;20040;-78
2022/07/10 06:26:14;;;;;;;12.98;1.90;;;;;;;;;;6205086;23;20017;-78
2022/07/10 06:28:40;;;;;;;6.30;1.67;;;;;;;;;;6204678;23;20023;-79
2022/07/10 06:31:06;;;;;;;14.55;1.50;;;;;;;;;;6205156;23;20029;-78
2022/07/10 06:33:32;;;;;;;5.07;1.50;;;;;;;;;;6203688;23;20043;-78
2022/07/10 06:35:58;;;;;;;10.57;2.60;;;;;;;;;;6177658;23;20063;-78
2022/07/10 06:38:24;;;;;;;7.78;1.50;;;;;;;;;;6204187;23;20469;-78
2022/07/10 06:40:52;;;;;;;15.23;1.75;;;;;;;;;;6203446;23;20028;-77
2022/07/10 06:43:18;;;;;;;5.57;0.77;;;;;;;;;;6205502;23;20642;-78
2022/07/10 06:45:44;;;;;;;5.60;1.10;;;;;;;;;;6204286;23;20021;-77
2022/07/10 06:48:11;;;;;;;8.60;0.90;;;;;;;;;;6178440;23;20052;-78
2022/07/10 06:50:37;;;;;;;4.65;1.00;;;;;;;;;;6203019;23;20021;-78
2022/07/10 06:53:04;;;;;;;7.13;0.73;;;;;;;;;;6206465;23;20025;-77
2022/07/10 06:55:30;;;;;;;5.53;0.90;;;;;;;;;;6179421;23;20515;-76
2022/07/10 06:57:56;;;;;;;5.97;0.95;;;;;;;;;;6206456;23;20016;-76
2022/07/10 07:00:23;;;;;;;7.20;0.95;;;;;;;;;;6156179;23;20083;-78
2022/07/10 07:02:49;;;;;;;5.18;1.00;;;;;;;;;;6206489;23;20043;-78
2022/07/10 07:05:15;;;;;;;3.50;1.17;;;;;;;;;;6206749;23;20023;-77
2022/07/10 07:07:41;;;;;;;4.30;0.90;;;;;;;;;;6205050;23;20028;-77
2022/07/10 07:10:09;;;;;;;6.72;1.38;;;;;;;;;;6204354;23;20060;-78
2022/07/10 07:12:36;;;;;;;3.90;1.00;;;;;;;;;;6208817;23;20019;-78
2022/07/10 07:15:02;;;;;;;7.15;1.00;;;;;;;;;;6207306;23;20017;-78
2022/07/10 07:17:35;;;;;;;4.35;0.82;;;;;;;;;;6206494;23;20032;-78
2022/07/10 07:25:32;;;;;;;7.95;1.10;;;;;;;;;;6207140;23;20413;-77
2022/07/10 07:27:59;;;;;;;5.03;1.00;;;;;;;;;;6205336;23;20024;-78
2022/07/10 07:30:25;;;;;;;9.82;1.88;;;;;;;;;;6180368;23;20039;-79
2022/07/10 07:32:51;;;;;;;8.55;1.40;;;;;;;;;;6204452;23;20019;-79
2022/07/10 07:35:17;;;;;;;8.70;1.52;;;;;;;;;;6205405;23;20452;-79
2022/07/10 07:37:44;;;;;;;3.58;0.80;;;;;;;;;;6205827;23;20029;-79
2022/07/10 07:40:12;;;;;;;5.50;0.95;;;;;;;;;;6205666;23;20147;-79
2022/07/10 07:42:38;;;;;;;3.42;1.00;;;;;;;;;;6207116;23;20023;-80
2022/07/10 07:45:05;;;;;;;4.78;1.20;;;;;;;;;;6207231;23;20021;-78
2022/07/10 07:47:32;;;;;;;7.95;0.95;;;;;;;;;;6207346;23;20106;-78
2022/07/10 07:49:58;;;;;;;8.27;1.52;;;;;;;;;;6206360;23;20526;-79
2022/07/10 07:52:24;;;;;;;7.10;0.93;;;;;;;;;;6206900;23;20028;-79
2022/07/10 07:54:50;;;;;;;8.65;1.20;;;;;;;;;;6207420;23;20293;-78
2022/07/10 07:57:17;;;;;;;8.30;1.52;;;;;;;;;;6182565;23;20036;-78
2022/07/10 07:59:43;;;;;;;8.70;1.27;;;;;;;;;;6206397;23;20066;-78
2022/07/10 08:02:09;;;;;;;13.13;1.58;;;;;;;;;;6204918;23;20068;-78
2022/07/10 08:04:35;;;;;;;9.40;1.48;;;;;;;;;;6204703;23;20016;-79
2022/07/10 08:07:02;;;;;;;6.43;1.17;;;;;;;;;;6209804;23;20028;-78
2022/07/10 08:09:28;;;;;;;15.18;5.47;;;;;;;;;;6209385;23;20055;-77
2022/07/10 08:11:54;;;;;;;12.48;2.13;;;;;;;;;;6209449;23;20504;-79
2022/07/10 08:14:23;;;;;;;8.88;1.33;;;;;;;;;;6182321;23;20035;-78
2022/07/10 08:16:52;;;;;;;10.73;2.38;;;;;;;;;;6181599;23;20036;-78
2022/07/10 08:19:18;;;;;;;5.15;1.50;;;;;;;;;;6207709;23;20119;-79
2022/07/10 08:21:44;;;;;;;7.70;1.50;;;;;;;;;;6208638;23;20457;-79
2022/07/10 08:24:10;;;;;;;7.18;1.38;;;;;;;;;;6205324;23;20783;-79
2022/07/10 08:26:36;;;;;;;10.55;1.15;;;;;;;;;;6180619;23;20035;-78
2022/07/10 08:29:02;;;;;;;13.05;1.80;;;;;;;;;;6178858;23;20103;-78
2022/07/10 08:31:28;;;;;;;8.43;1.20;;;;;;;;;;6178948;23;20020;-77
2022/07/10 08:33:58;;;;;;;8.90;1.38;;;;;;;;;;6177670;23;20099;-79
2022/07/10 08:36:24;;;;;;;7.97;1.13;;;;;;;;;;6208129;23;20171;-80
2022/07/10 08:39:06;;;;;;;8.73;1.58;;;;;;;;;;6117982;23;20454;-80
2022/07/10 08:41:37;;;;;;;5.72;0.80;;;;;;;;;;6144242;23;20033;-79
2022/07/10 08:44:03;;;;;;;9.55;0.98;;;;;;;;;;6118490;23;20545;-79
2022/07/10 08:46:35;;;;;;;4.97;0.90;;;;;;;;;;6119942;23;20072;-79
2022/07/10 08:49:05;;;;;;;6.88;1.30;;;;;;;;;;6120912;23;20434;-78
2022/07/10 08:51:37;;;;;;;4.38;0.93;;;;;;;;;;6112260;23;20048;-79
2022/07/10 08:54:05;;;;;;;5.55;0.77;;;;;;;;;;6174441;23;20021;-82
2022/07/10 08:56:32;;;;;;;5.20;1.10;;;;;;;;;;6127470;23;20025;-81
2022/07/10 08:58:58;;;;;;;9.52;1.35;;;;;;;;;;6174324;23;20021;-80
2022/07/10 09:01:24;;;;;;;5.80;1.45;;;;;;;;;;6173080;23;20016;-80
2022/07/10 09:03:50;;;;;;;3.97;0.90;;;;;;;;;;6174395;23;20021;-81
2022/07/10 09:06:17;;;;;;;5.47;0.90;;;;;;;;;;6174781;23;20028;-80
2022/07/10 09:09:00;;;;;;;5.07;1.20;;;;;;;;;;6175027;23;20017;-79
2022/07/10 09:11:30;;;;;;;6.78;1.30;;;;;;;;;;6234999;23;21107;-80
2022/07/10 09:14:08;;;;;;;9.88;1.05;;;;;;;;;;6210480;23;20334;-80
2022/07/10 09:16:35;;;;;;;7.25;1.00;;;;;;;;;;6210651;23;20044;-80
2022/07/10 09:19:19;;;;;;;8.27;1.00;;;;;;;;;;6185919;23;20047;-79
2022/07/10 09:21:47;;;;;;;5.18;1.08;;;;;;;;;;6237004;23;20027;-80
2022/07/10 09:24:13;;;;;;;7.07;1.25;;;;;;;;;;6209941;23;20028;-79
2022/07/10 09:26:40;;;;;;;3.13;0.98;;;;;;;;;;6209232;23;20070;-80
2022/07/10 09:29:16;;;;;;;7.75;1.30;;;;;;;;;;6237530;23;20024;-79
2022/07/10 09:31:52;;;;;;;5.53;1.02;;;;;;;;;;6237745;23;20094;-81
2022/07/10 09:34:18;;;;;;;6.28;1.20;;;;;;;;;;6241116;23;20024;-80
2022/07/10 09:36:44;;;;;;;4.70;1.00;;;;;;;;;;6235692;23;20059;-80
2022/07/10 09:39:11;;;;;;;8.05;2.03;;;;;;;;;;6209729;23;20375;-81
2022/07/10 09:41:41;;;;;;;6.25;0.90;;;;;;;;;;6236355;23;20020;-81
2022/07/10 09:44:08;;;;;;;7.03;1.02;;;;;;;;;;6238412;23;20135;-80
2022/07/10 09:46:41;;;;;;;2.65;0.75;;;;;;;;;;6237459;23;20095;-81
2022/07/10 09:49:08;;;;;;;8.60;1.00;;;;;;;;;;6237068;23;20184;-81
2022/07/10 09:51:36;;;;;;;7.40;1.02;;;;;;;;;;6218697;23;20024;-80
2022/07/10 09:54:07;;;;;;;10.00;1.85;;;;;;;;;;6205729;23;20031;-79
2022/07/10 09:56:34;;;;;;;5.35;0.85;;;;;;;;;;6206091;23;20020;-79
2022/07/10 09:59:01;;;;;;;6.65;0.93;;;;;;;;;;6205681;23;20446;-79
2022/07/10 10:01:36;;;;;;;2.63;0.90;;;;;;;;;;6206034;23;20095;-78
2022/07/10 10:04:02;;;;;;;6.05;0.80;;;;;;;;;;6208789;23;20455;-80
2022/07/10 10:06:30;;;;;;;4.90;1.52;;;;;;;;;;6209185;23;20066;-79
2022/07/10 10:09:02;;;;;;;7.07;1.48;;;;;;;;;;6208133;23;20048;-80
2022/07/10 10:11:40;;;;;;;6.57;1.17;;;;;;;;;;6207970;23;20443;-80
2022/07/10 10:14:08;;;;;;;5.13;1.00;;;;;;;;;;6206797;23;20020;-80
2022/07/10 10:16:34;;;;;;;2.65;0.93;;;;;;;;;;6179931;23;20043;-81
2022/07/10 10:22:18;;;;;;;8.07;1.48;;;;;;;;;;6204356;23;20016;-82
2022/07/10 10:24:45;;;;;;;;;;;;;;;;;;6205232;23;20024;-80
2022/07/10 10:27:11;;;;;;;6.70;1.23;;;;;;;;;;6177933;23;19978;-81
2022/07/10 10:29:38;;;;;;;4.25;0.90;;;;;;;;;;6204310;23;20405;-80
2022/07/10 10:32:04;;;;;;;7.40;0.95;;;;;;;;;;6203797;23;20092;-79
2022/07/10 10:35:06;;;;;;;2.55;0.68;;;;;;;;;;6203115;23;20031;-80
2022/07/10 10:37:44;;;;;;;3.65;1.10;;;;;;;;;;6176561;23;20028;-80
2022/07/10 10:40:11;;;;;;;1.83;0.68;;;;;;;;;;6203795;23;20032;-80
2022/07/10 10:42:39;;;;;;;2.92;0.90;;;;;;;;;;6180939;23;20017;-81
2022/07/10 10:45:36;;;;;;;3.45;1.48;;;;;;;;;;6178752;23;20021;-79
2022/07/10 10:48:02;;;;;;;2.72;1.00;;;;;;;;;;6206131;23;20068;-81
2022/07/10 10:50:42;;;;;;;9.68;1.90;;;;;;;;;;6156109;23;20020;-81
2022/07/10 10:53:15;;;;;;;3.42;1.52;;;;;;;;;;6235052;23;20139;-80
2022/07/10 10:56:01;;;;;;;6.13;1.38;;;;;;;;;;6209415;23;20083;-80
2022/07/10 10:58:28;;;;;;;1.80;0.93;;;;;;;;;;6234742;23;20016;-80
2022/07/10 11:01:05;;;;;;;3.15;0.98;;;;;;;;;;6236120;23;20020;-79
2022/07/10 11:03:40;;;;;;;3.15;1.10;;;;;;;;;;6183819;23;20024;-79
2022/07/10 11:06:08;;;;;;;6.07;1.20;;;;;;;;;;6237803;23;20023;-78
2022/07/10 11:08:38;;;;;;;2.78;0.70;;;;;;;;;;6236328;23;20025;-81
2022/07/10 11:11:23;;;;;;;3.13;1.00;;;;;;;;;;6210089;23;20376;-80
2022/07/10 11:13:50;;;;;;;4.63;1.20;;;;;;;;;;6237686;23;20577;-80
2022/07/10 11:16:16;;;;;;;3.55;1.10;;;;;;;;;;6236326;23;20020;-80
2022/07/10 11:18:43;;;;;;;2.28;0.90;;;;;;;;;;6209973;23;20017;-80
2022/07/10 11:21:15;;;;;;;3.72;1.35;;;;;;;;;;6235023;23;20016;-80
2022/07/10 11:23:54;;;;;;;2.05;0.77;;;;;;;;;;6237283;23;20024;-81
2022/07/10 11:26:26;;;;;;;4.53;1.10;;;;;;;;;;6212600;23;20488;-81
2022/07/10 11:28:53;;;;;;;4.22;0.80;;;;;;;;;;6214830;23;20028;-82
2022/07/10 11:31:20;;;;;;;6.20;1.40;;;;;;;;;;6241375;23;20012;-81
2022/07/10 11:33:48;;;;;;;4.55;1.00;;;;;;;;;;6241942;23;20016;-81
2022/07/10 11:36:32;;;;;;;4.10;1.30;;;;;;;;;;6242825;23;20048;-80
2022/07/10 11:39:05;;;;;;;4.63;1.45;;;;;;;;;;6240901;23;20020;-80
2022/07/10 11:41:42;;;;;;;3.47;1.10;;;;;;;;;;6214950;23;20063;-81
2022/07/10 11:44:13;;;;;;;7.38;1.90;;;;;;;;;;6240869;23;20460;-81
2022/07/10 11:46:40;;;;;;;7.25;1.60;;;;;;;;;;6212121;23;20031;-80
2022/07/10 11:49:08;;;;;;;5.32;1.50;;;;;;;;;;6238084;23;20023;-81
2022/07/10 11:51:37;;;;;;;4.55;1.52;;;;;;;;;;6236849;23;20023;-81
2022/07/10 11:54:15;;;;;;;9.82;2.28;;;;;;;;;;6237053;23;20021;-78
2022/07/10 11:56:43;;;;;;;4.65;1.60;;;;;;;;;;6209631;23;20061;-81
2022/07/10 11:59:10;;;;;;;7.97;1.70;;;;;;;;;;6236803;23;20016;-80
2022/07/10 12:01:41;;;;;;;5.57;1.60;;;;;;;;;;6209361;23;20052;-80
2022/07/10 12:04:09;;;;;;;5.07;1.52;;;;;;;;;;6234389;23;20047;-80
2022/07/10 12:06:36;;;;;;;5.43;1.55;;;;;;;;;;6235586;23;20127;-81
2022/07/10 12:09:06;;;;;;;6.32;1.63;;;;;;;;;;6236314;23;20020;-81
2022/07/10 12:11:32;;;;;;;10.55;4.55;;;;;;;;;;6235191;23;20027;-80
2022/07/10 12:14:14;;;;;;;7.45;2.80;;;;;;;;;;6236070;23;20321;-80
2022/07/10 12:16:42;;;;;;;9.70;2.13;;;;;;;;;;6236152;23;20086;-80
2022/07/10 12:19:10;;;;;;;8.13;2.05;;;;;;;;;;6208398;23;20022;-78
2022/07/10 12:21:36;;;;;;;7.30;1.95;;;;;;;;;;6236365;23;20043;-82
2022/07/10 12:24:02;;;;;;;5.78;1.90;;;;;;;;;;6184220;23;20099;-81
2022/07/10 12:26:36;;;;;;;5.10;1.65;;;;;;;;;;6209419;23;20024;-82
2022/07/10 12:29:20;;;;;;;11.05;2.40;;;;;;;;;;6234391;23;20095;-83
2022/07/10 12:31:47;;;;;;;9.50;2.25;;;;;;;;;;6234019;23;20096;-81
2022/07/10 12:34:17;;;;;;;6.15;1.65;;;;;;;;;;6206328;23;20644;-83
2022/07/10 12:36:43;;;;;;;9.05;1.90;;;;;;;;;;6233585;23;20448;-82
2022/07/10 12:39:17;;;;;;;11.35;2.08;;;;;;;;;;6235611;23;20013;-82
2022/07/10 12:42:02;;;;;;;11.38;2.47;;;;;;;;;;6237258;23;20103;-82
2022/07/10 12:44:42;;;;;;;9.23;2.13;;;;;;;;;;6208626;23;20024;-81
2022/07/10 12:47:14;;;;;;;8.88;2.45;;;;;;;;;;6238160;23;20039;-81
2022/07/10 12:49:49;;;;;;;8.18;2.17;;;;;;;;;;6235111;23;20020;-80
2022/07/10 12:52:34;;;;;;;6.25;1.70;;;;;;;;;;6211440;23;20032;-79
2022/07/10 12:55:16;;;;;;;4.30;2.28;;;;;;;;;;6207748;23;20024;-81
2022/07/10 12:57:46;;;;;;;7.05;1.17;;;;;;;;;;6174084;23;20063;-80
2022/07/10 13:00:13;;;;;;;6.15;1.50;;;;;;;;;;6148516;23;20031;-80
2022/07/10 13:02:39;;;;;;;3.95;1.17;;;;;;;;;;6174468;23;20040;-80
2022/07/10 13:05:38;;;;;;;6.50;1.38;;;;;;;;;;6179731;23;20493;-80
2022/07/10 13:08:24;;;;;;;9.50;1.40;;;;;;;;;;6143029;23;20032;-82
2022/07/10 13:11:00;;;;;;;4.50;1.40;;;;;;;;;;6174042;23;20013;-81
2022/07/10 13:13:28;;;;;;;6.70;1.70;;;;;;;;;;6149307;23;20092;-81
2022/07/10 13:15:54;;;;;;;3.65;1.70;;;;;;;;;;6151700;23;20025;-80
2022/07/10 13:18:21;;;;;;;6.88;1.50;;;;;;;;;;6173635;23;20052;-80
2022/07/10 13:20:49;;;;;;;9.30;1.83;;;;;;;;;;6178794;23;20013;-79
2022/07/10 13:23:15;;;;;;;8.18;2.42;;;;;;;;;;6175377;23;20164;-79
2022/07/10 13:25:42;;;;;;;11.55;2.03;;;;;;;;;;6176828;23;20049;-80
2022/07/10 13:28:16;;;;;;;5.30;1.50;;;;;;;;;;6189446;23;20023;-79
2022/07/10 13:30:42;;;;;;;11.55;2.00;;;;;;;;;;6211944;23;20027;-81
2022/07/10 13:33:09;;;;;;;8.75;1.85;;;;;;;;;;6182264;23;20048;-79
2022/07/10 13:35:36;;;;;;;11.15;2.13;;;;;;;;;;6212896;23;20023;-80
2022/07/10 13:38:03;;;;;;;8.43;1.92;;;;;;;;;;6211764;23;20025;-80
2022/07/10 13:40:30;;;;;;;7.35;1.80;;;;;;;;;;6208371;23;20025;-80
2022/07/10 13:42:56;;;;;;;12.48;2.05;;;;;;;;;;6211452;23;20048;-80
2022/07/10 13:45:24;;;;;;;8.45;1.80;;;;;;;;;;6183063;23;20387;-80
2022/07/10 13:47:54;;;;;;;7.85;1.70;;;;;;;;;;6207040;23;20025;-80
2022/07/10 13:50:26;;;;;;;4.85;1.80;;;;;;;;;;6187939;23;20082;-79
2022/07/10 13:52:52;;;;;;;8.98;2.42;;;;;;;;;;6185302;23;20025;-80
2022/07/10 13:55:18;;;;;;;7.00;2.22;;;;;;;;;;6159018;23;20020;-80
2022/07/10 13:57:44;;;;;;;9.23;2.13;;;;;;;;;;6210940;23;20118;-80
2022/07/10 14:00:11;;;;;;;11.98;2.40;;;;;;;;;;6187035;23;20020;-81
2022/07/10 14:02:40;;;;;;;8.27;1.88;;;;;;;;;;6210279;23;20441;-82
2022/07/10 14:05:07;;;;;;;8.43;2.80;;;;;;;;;;6206032;23;20091;-80
2022/07/10 14:07:34;;;;;;;10.90;2.13;;;;;;;;;;6155215;23;20132;-81
2022/07/10 14:10:01;;;;;;;7.85;2.00;;;;;;;;;;6208620;23;20031;-80
2022/07/10 14:12:27;;;;;;;4.30;1.98;;;;;;;;;;6207224;23;20455;-80
2022/07/10 14:14:54;;;;;;;3.55;1.75;;;;;;;;;;6207295;23;20356;-81
2022/07/10 14:17:20;;;;;;;11.52;2.20;;;;;;;;;;6208955;23;20020;-80
2022/07/10 14:19:47;;;;;;;7.00;2.00;;;;;;;;;;6206273;23;20352;-80
2022/07/10 14:22:13;;;;;;;8.00;2.33;;;;;;;;;;6207102;23;20461;-80
2022/07/10 14:24:39;;;;;;;5.70;1.70;;;;;;;;;;6207529;23;20109;-80
2022/07/10 14:27:06;;;;;;;7.55;1.63;;;;;;;;;;6207192;23;20020;-80
2022/07/10 14:29:32;;;;;;;4.28;1.88;;;;;;;;;;6208848;23;20017;-79
2022/07/10 14:31:58;;;;;;;8.60;2.25;;;;;;;;;;6207484;23;20091;-81
2022/07/10 14:34:24;;;;;;;5.28;1.83;;;;;;;;;;6208576;23;20031;-79
2022/07/10 14:36:53;;;;;;;5.10;1.58;;;;;;;;;;6206546;23;20020;-79
2022/07/10 14:39:20;;;;;;;6.68;1.52;;;;;;;;;;6209297;23;20979;-79
2022/07/10 14:41:46;;;;;;;7.55;1.80;;;;;;;;;;6183885;23;20016;-79
2022/07/10 14:44:12;;;;;;;4.38;2.33;;;;;;;;;;6208055;23;20050;-80
2022/07/10 14:46:38;;;;;;;10.05;2.42;;;;;;;;;;6181442;23;20095;-81
2022/07/10 14:49:04;;;;;;;10.27;1.75;;;;;;;;;;6207026;23;20044;-79
2022/07/10 14:51:31;;;;;;;6.13;1.95;;;;;;;;;;6208295;23;20537;-80
2022/07/10 14:53:57;;;;;;;10.88;1.77;;;;;;;;;;6207554;23;20017;-79